sensor_id;sensor_type;location;lat;lon;timestamp;P1;durP1;ratioP1;P2;durP2;ratioP2
10882;SDS011;5494;51.796;10.952;2022-12-07T00:01:42;9.53;;;6.50;;
10882;SDS011;5494;51.796;10.952;2022-12-07T00:04:13;10.90;;;6.73;;
10882;SDS011;5494;51.796;10.952;2022-12-07T00:06:44;9.93;;;6.87;;
10882;SDS011;5494;51.796;10.952;2022-12-07T00:09:16;11.43;;;6.70;;
10882;SDS011;5494;51.796;10.952;2022-12-07T00:11:47;10.63;;;7.03;;
10882;SDS011;5494;51.796;10.952;2022-12-07T00:14:19;9.77;;;6.35;;
10882;SDS011;5494;51.796;10.952;2022-12-07T00:16:48;10.88;;;6.85;;
10882;SDS011;5494;51.796;10.952;2022-12-07T00:19:18;12.68;;;7.30;;
10882;SDS011;5494;51.796;10.952;2022-12-07T00:21:47;11.27;;;7.30;;
10882;SDS011;5494;51.796;10.952;2022-12-07T00:24:15;11.50;;;6.82;;
10882;SDS011;5494;51.796;10.952;2022-12-07T00:26:43;9.35;;;6.32;;
10882;SDS011;5494;51.796;10.952;2022-12-07T00:29:13;9.55;;;6.00;;
10882;SDS011;5494;51.796;10.952;2022-12-07T00:31:45;10.50;;;6.57;;
10882;SDS011;5494;51.796;10.952;2022-12-07T00:34:15;8.35;;;5.57;;
10882;SDS011;5494;51.796;10.952;2022-12-07T00:36:45;9.00;;;6.13;;
10882;SDS011;5494;51.796;10.952;2022-12-07T00:39:14;8.60;;;5.77;;
10882;SDS011;5494;51.796;10.952;2022-12-07T00:41:43;8.93;;;6.43;;
10882;SDS011;5494;51.796;10.952;2022-12-07T00:44:11;10.87;;;5.80;;
10882;SDS011;5494;51.796;10.952;2022-12-07T00:46:39;7.60;;;5.60;;
10882;SDS011;5494;51.796;10.952;2022-12-07T00:49:09;8.20;;;4.97;;
10882;SDS011;5494;51.796;10.952;2022-12-07T00:51:38;8.73;;;5.27;;
10882;SDS011;5494;51.796;10.952;2022-12-07T00:54:08;12.70;;;6.77;;
10882;SDS011;5494;51.796;10.952;2022-12-07T00:56:36;9.67;;;6.13;;
10882;SDS011;5494;51.796;10.952;2022-12-07T00:59:05;10.43;;;5.93;;
10882;SDS011;5494;51.796;10.952;2022-12-07T01:01:34;11.37;;;6.70;;
10882;SDS011;5494;51.796;10.952;2022-12-07T01:04:04;12.03;;;6.67;;
10882;SDS011;5494;51.796;10.952;2022-12-07T01:06:34;10.20;;;5.87;;
10882;SDS011;5494;51.796;10.952;2022-12-07T01:09:02;10.93;;;7.30;;
10882;SDS011;5494;51.796;10.952;2022-12-07T01:11:32;12.53;;;7.27;;
10882;SDS011;5494;51.796;10.952;2022-12-07T01:14:00;13.23;;;7.30;;
10882;SDS011;5494;51.796;10.952;2022-12-07T01:16:29;13.37;;;7.33;;
10882;SDS011;5494;51.796;10.952;2022-12-07T01:19:00;13.75;;;7.30;;
10882;SDS011;5494;51.796;10.952;2022-12-07T01:21:35;15.50;;;8.90;;
10882;SDS011;5494;51.796;10.952;2022-12-07T01:24:05;15.07;;;8.63;;
10882;SDS011;5494;51.796;10.952;2022-12-07T01:26:36;14.23;;;8.30;;
10882;SDS011;5494;51.796;10.952;2022-12-07T01:29:05;16.53;;;8.97;;
10882;SDS011;5494;51.796;10.952;2022-12-07T01:31:33;14.13;;;7.80;;
10882;SDS011;5494;51.796;10.952;2022-12-07T01:34:01;14.03;;;8.50;;
10882;SDS011;5494;51.796;10.952;2022-12-07T01:36:31;11.77;;;7.30;;
10882;SDS011;5494;51.796;10.952;2022-12-07T01:39:03;13.13;;;7.90;;
10882;SDS011;5494;51.796;10.952;2022-12-07T01:41:34;16.00;;;8.60;;
10882;SDS011;5494;51.796;10.952;2022-12-07T01:44:18;13.97;;;8.43;;
10882;SDS011;5494;51.796;10.952;2022-12-07T01:46:49;17.57;;;8.40;;
10882;SDS011;5494;51.796;10.952;2022-12-07T01:49:24;12.77;;;7.60;;
10882;SDS011;5494;51.796;10.952;2022-12-07T01:52:07;13.13;;;8.00;;
10882;SDS011;5494;51.796;10.952;2022-12-07T01:54:44;15.93;;;8.67;;
10882;SDS011;5494;51.796;10.952;2022-12-07T01:57:16;14.73;;;8.70;;
10882;SDS011;5494;51.796;10.952;2022-12-07T01:59:47;14.63;;;8.47;;
10882;SDS011;5494;51.796;10.952;2022-12-07T02:02:19;13.17;;;8.10;;
10882;SDS011;5494;51.796;10.952;2022-12-07T02:04:52;11.40;;;7.13;;
10882;SDS011;5494;51.796;10.952;2022-12-07T02:07:24;10.17;;;6.80;;
10882;SDS011;5494;51.796;10.952;2022-12-07T02:09:56;10.93;;;6.67;;
10882;SDS011;5494;51.796;10.952;2022-12-07T02:12:24;9.23;;;6.07;;
10882;SDS011;5494;51.796;10.952;2022-12-07T02:14:53;8.73;;;5.70;;
10882;SDS011;5494;51.796;10.952;2022-12-07T02:17:23;10.57;;;6.67;;
10882;SDS011;5494;51.796;10.952;2022-12-07T02:29:31;8.10;;;5.17;;
10882;SDS011;5494;51.796;10.952;2022-12-07T02:32:07;6.47;;;4.83;;
10882;SDS011;5494;51.796;10.952;2022-12-07T02:34:46;7.17;;;4.80;;
10882;SDS011;5494;51.796;10.952;2022-12-07T02:37:20;6.37;;;4.27;;
10882;SDS011;5494;51.796;10.952;2022-12-07T02:40:03;6.33;;;4.37;;
10882;SDS011;5494;51.796;10.952;2022-12-07T02:42:39;5.90;;;4.00;;
10882;SDS011;5494;51.796;10.952;2022-12-07T02:45:15;7.43;;;4.57;;
10882;SDS011;5494;51.796;10.952;2022-12-07T02:47:48;6.33;;;4.53;;
10882;SDS011;5494;51.796;10.952;2022-12-07T02:50:24;5.80;;;4.10;;
10882;SDS011;5494;51.796;10.952;2022-12-07T02:52:54;4.93;;;3.63;;
10882;SDS011;5494;51.796;10.952;2022-12-07T02:55:24;6.10;;;4.40;;
10882;SDS011;5494;51.796;10.952;2022-12-07T02:58:06;5.33;;;3.43;;
10882;SDS011;5494;51.796;10.952;2022-12-07T03:00:58;4.93;;;3.97;;
10882;SDS011;5494;51.796;10.952;2022-12-07T03:03:39;4.23;;;3.13;;
10882;SDS011;5494;51.796;10.952;2022-12-07T03:06:16;4.47;;;3.30;;
10882;SDS011;5494;51.796;10.952;2022-12-07T03:08:56;4.93;;;3.37;;
10882;SDS011;5494;51.796;10.952;2022-12-07T03:11:39;4.37;;;3.30;;
10882;SDS011;5494;51.796;10.952;2022-12-07T03:14:16;3.50;;;2.87;;
10882;SDS011;5494;51.796;10.952;2022-12-07T03:16:52;4.30;;;3.23;;
10882;SDS011;5494;51.796;10.952;2022-12-07T03:19:28;4.10;;;3.03;;
10882;SDS011;5494;51.796;10.952;2022-12-07T03:22:02;4.67;;;2.87;;
10882;SDS011;5494;51.796;10.952;2022-12-07T03:24:35;4.07;;;2.90;;
10882;SDS011;5494;51.796;10.952;2022-12-07T03:27:13;3.40;;;2.60;;
10882;SDS011;5494;51.796;10.952;2022-12-07T03:29:46;3.97;;;2.80;;
10882;SDS011;5494;51.796;10.952;2022-12-07T03:32:23;3.90;;;2.20;;
10882;SDS011;5494;51.796;10.952;2022-12-07T03:34:58;3.23;;;2.70;;
10882;SDS011;5494;51.796;10.952;2022-12-07T03:37:36;3.27;;;2.43;;
10882;SDS011;5494;51.796;10.952;2022-12-07T03:40:10;2.50;;;1.83;;
10882;SDS011;5494;51.796;10.952;2022-12-07T03:42:44;3.17;;;2.03;;
10882;SDS011;5494;51.796;10.952;2022-12-07T03:45:14;5.77;;;2.83;;
10882;SDS011;5494;51.796;10.952;2022-12-07T03:47:46;2.40;;;2.07;;
10882;SDS011;5494;51.796;10.952;2022-12-07T03:50:30;3.03;;;1.77;;
10882;SDS011;5494;51.796;10.952;2022-12-07T03:53:09;4.70;;;2.30;;
10882;SDS011;5494;51.796;10.952;2022-12-07T03:55:45;2.93;;;2.27;;
10882;SDS011;5494;51.796;10.952;2022-12-07T03:58:16;3.40;;;2.20;;
10882;SDS011;5494;51.796;10.952;2022-12-07T04:00:48;3.40;;;1.80;;
10882;SDS011;5494;51.796;10.952;2022-12-07T04:03:19;3.00;;;2.53;;
10882;SDS011;5494;51.796;10.952;2022-12-07T04:05:47;4.27;;;2.73;;
10882;SDS011;5494;51.796;10.952;2022-12-07T04:08:15;2.80;;;1.63;;
10882;SDS011;5494;51.796;10.952;2022-12-07T04:10:43;2.70;;;1.70;;
10882;SDS011;5494;51.796;10.952;2022-12-07T04:13:12;3.00;;;1.57;;
10882;SDS011;5494;51.796;10.952;2022-12-07T04:15:40;4.27;;;1.90;;
10882;SDS011;5494;51.796;10.952;2022-12-07T04:18:08;4.73;;;2.43;;
10882;SDS011;5494;51.796;10.952;2022-12-07T04:20:38;4.67;;;2.20;;
10882;SDS011;5494;51.796;10.952;2022-12-07T04:23:06;3.60;;;2.43;;
10882;SDS011;5494;51.796;10.952;2022-12-07T04:25:34;5.50;;;2.50;;
10882;SDS011;5494;51.796;10.952;2022-12-07T04:28:02;6.93;;;2.80;;
10882;SDS011;5494;51.796;10.952;2022-12-07T04:30:30;4.70;;;2.47;;
10882;SDS011;5494;51.796;10.952;2022-12-07T04:32:58;4.80;;;2.67;;
10882;SDS011;5494;51.796;10.952;2022-12-07T04:35:26;4.80;;;3.30;;
10882;SDS011;5494;51.796;10.952;2022-12-07T04:37:56;4.83;;;2.77;;
10882;SDS011;5494;51.796;10.952;2022-12-07T04:40:24;5.43;;;2.90;;
10882;SDS011;5494;51.796;10.952;2022-12-07T04:42:52;6.43;;;3.37;;
10882;SDS011;5494;51.796;10.952;2022-12-07T04:45:20;5.13;;;3.07;;
10882;SDS011;5494;51.796;10.952;2022-12-07T04:47:48;5.53;;;2.57;;
10882;SDS011;5494;51.796;10.952;2022-12-07T04:50:16;4.10;;;2.60;;
10882;SDS011;5494;51.796;10.952;2022-12-07T04:52:44;3.60;;;2.80;;
10882;SDS011;5494;51.796;10.952;2022-12-07T04:55:14;7.90;;;2.80;;
10882;SDS011;5494;51.796;10.952;2022-12-07T04:57:42;6.37;;;2.77;;
10882;SDS011;5494;51.796;10.952;2022-12-07T05:00:10;5.07;;;2.80;;
10882;SDS011;5494;51.796;10.952;2022-12-07T05:02:39;6.87;;;3.07;;
10882;SDS011;5494;51.796;10.952;2022-12-07T05:05:07;6.23;;;2.60;;
10882;SDS011;5494;51.796;10.952;2022-12-07T05:07:35;4.33;;;2.40;;
10882;SDS011;5494;51.796;10.952;2022-12-07T05:10:04;5.23;;;2.33;;
10882;SDS011;5494;51.796;10.952;2022-12-07T05:12:35;7.93;;;2.40;;
10882;SDS011;5494;51.796;10.952;2022-12-07T05:15:03;5.70;;;2.50;;
10882;SDS011;5494;51.796;10.952;2022-12-07T05:17:32;5.70;;;2.40;;
10882;SDS011;5494;51.796;10.952;2022-12-07T05:20:00;5.03;;;3.23;;
10882;SDS011;5494;51.796;10.952;2022-12-07T05:22:29;3.77;;;2.40;;
10882;SDS011;5494;51.796;10.952;2022-12-07T05:24:57;4.70;;;2.73;;
10882;SDS011;5494;51.796;10.952;2022-12-07T05:27:25;4.80;;;2.27;;
10882;SDS011;5494;51.796;10.952;2022-12-07T05:29:54;5.30;;;1.60;;
10882;SDS011;5494;51.796;10.952;2022-12-07T05:32:22;3.43;;;1.73;;
10882;SDS011;5494;51.796;10.952;2022-12-07T05:34:50;5.53;;;1.93;;
10882;SDS011;5494;51.796;10.952;2022-12-07T05:37:20;2.90;;;1.90;;
10882;SDS011;5494;51.796;10.952;2022-12-07T05:39:48;5.40;;;2.03;;
10882;SDS011;5494;51.796;10.952;2022-12-07T05:42:17;3.60;;;1.90;;
10882;SDS011;5494;51.796;10.952;2022-12-07T05:44:45;5.27;;;2.00;;
10882;SDS011;5494;51.796;10.952;2022-12-07T05:47:15;5.33;;;1.60;;
10882;SDS011;5494;51.796;10.952;2022-12-07T05:49:43;4.67;;;1.93;;
10882;SDS011;5494;51.796;10.952;2022-12-07T05:52:11;4.60;;;1.83;;
10882;SDS011;5494;51.796;10.952;2022-12-07T05:54:39;2.20;;;1.33;;
10882;SDS011;5494;51.796;10.952;2022-12-07T05:57:07;4.60;;;1.57;;
10882;SDS011;5494;51.796;10.952;2022-12-07T05:59:36;4.97;;;1.80;;
10882;SDS011;5494;51.796;10.952;2022-12-07T06:02:03;5.53;;;1.57;;
10882;SDS011;5494;51.796;10.952;2022-12-07T06:04:36;3.83;;;1.80;;
10882;SDS011;5494;51.796;10.952;2022-12-07T06:07:06;2.87;;;1.80;;
10882;SDS011;5494;51.796;10.952;2022-12-07T06:09:38;2.60;;;1.20;;
10882;SDS011;5494;51.796;10.952;2022-12-07T06:12:06;2.20;;;1.20;;
10882;SDS011;5494;51.796;10.952;2022-12-07T06:14:55;2.97;;;1.10;;
10882;SDS011;5494;51.796;10.952;2022-12-07T06:17:24;4.93;;;1.80;;
10882;SDS011;5494;51.796;10.952;2022-12-07T06:19:53;3.97;;;1.27;;
10882;SDS011;5494;51.796;10.952;2022-12-07T06:22:21;4.43;;;1.40;;
10882;SDS011;5494;51.796;10.952;2022-12-07T06:24:49;4.60;;;1.80;;
10882;SDS011;5494;51.796;10.952;2022-12-07T06:27:17;4.97;;;1.73;;
10882;SDS011;5494;51.796;10.952;2022-12-07T06:29:46;2.37;;;1.47;;
10882;SDS011;5494;51.796;10.952;2022-12-07T06:32:14;2.47;;;1.60;;
10882;SDS011;5494;51.796;10.952;2022-12-07T06:34:45;4.00;;;1.90;;
10882;SDS011;5494;51.796;10.952;2022-12-07T06:37:15;3.63;;;2.17;;
10882;SDS011;5494;51.796;10.952;2022-12-07T06:39:46;6.73;;;2.00;;
10882;SDS011;5494;51.796;10.952;2022-12-07T06:42:14;3.23;;;1.83;;
10882;SDS011;5494;51.796;10.952;2022-12-07T06:44:42;3.77;;;2.10;;
10882;SDS011;5494;51.796;10.952;2022-12-07T06:47:10;4.10;;;1.90;;
10882;SDS011;5494;51.796;10.952;2022-12-07T06:49:58;4.83;;;2.10;;
10882;SDS011;5494;51.796;10.952;2022-12-07T06:52:28;5.10;;;1.97;;
10882;SDS011;5494;51.796;10.952;2022-12-07T06:54:57;5.37;;;2.17;;
10882;SDS011;5494;51.796;10.952;2022-12-07T06:57:25;5.00;;;2.33;;
10882;SDS011;5494;51.796;10.952;2022-12-07T06:59:54;3.10;;;2.13;;
10882;SDS011;5494;51.796;10.952;2022-12-07T07:02:22;3.30;;;2.13;;
10882;SDS011;5494;51.796;10.952;2022-12-07T07:04:50;8.30;;;2.20;;
10882;SDS011;5494;51.796;10.952;2022-12-07T07:07:18;4.30;;;2.17;;
10882;SDS011;5494;51.796;10.952;2022-12-07T07:09:47;5.80;;;2.80;;
10882;SDS011;5494;51.796;10.952;2022-12-07T07:12:15;4.37;;;2.20;;
10882;SDS011;5494;51.796;10.952;2022-12-07T07:14:43;5.33;;;1.70;;
10882;SDS011;5494;51.796;10.952;2022-12-07T07:17:14;4.43;;;2.00;;
10882;SDS011;5494;51.796;10.952;2022-12-07T07:19:42;6.60;;;2.20;;
10882;SDS011;5494;51.796;10.952;2022-12-07T07:22:10;4.43;;;1.97;;
10882;SDS011;5494;51.796;10.952;2022-12-07T07:24:38;6.27;;;2.27;;
10882;SDS011;5494;51.796;10.952;2022-12-07T07:27:08;5.30;;;1.93;;
10882;SDS011;5494;51.796;10.952;2022-12-07T07:29:36;5.10;;;2.07;;
10882;SDS011;5494;51.796;10.952;2022-12-07T07:32:04;3.57;;;1.93;;
10882;SDS011;5494;51.796;10.952;2022-12-07T07:34:33;4.83;;;1.80;;
10882;SDS011;5494;51.796;10.952;2022-12-07T07:37:01;4.20;;;1.73;;
10882;SDS011;5494;51.796;10.952;2022-12-07T07:39:30;4.63;;;2.23;;
10882;SDS011;5494;51.796;10.952;2022-12-07T07:41:58;3.90;;;2.10;;
10882;SDS011;5494;51.796;10.952;2022-12-07T07:44:28;4.43;;;2.03;;
10882;SDS011;5494;51.796;10.952;2022-12-07T07:47:00;3.27;;;1.80;;
10882;SDS011;5494;51.796;10.952;2022-12-07T07:49:29;4.07;;;2.70;;
10882;SDS011;5494;51.796;10.952;2022-12-07T07:51:57;2.17;;;1.80;;
10882;SDS011;5494;51.796;10.952;2022-12-07T07:54:25;2.23;;;1.57;;
10882;SDS011;5494;51.796;10.952;2022-12-07T07:56:53;4.30;;;2.03;;
10882;SDS011;5494;51.796;10.952;2022-12-07T07:59:22;3.47;;;1.80;;
10882;SDS011;5494;51.796;10.952;2022-12-07T08:01:52;4.67;;;2.63;;
10882;SDS011;5494;51.796;10.952;2022-12-07T08:04:20;2.93;;;2.00;;
10882;SDS011;5494;51.796;10.952;2022-12-07T08:06:48;3.77;;;2.10;;
10882;SDS011;5494;51.796;10.952;2022-12-07T08:09:16;4.27;;;1.90;;
10882;SDS011;5494;51.796;10.952;2022-12-07T08:11:44;4.47;;;2.13;;
10882;SDS011;5494;51.796;10.952;2022-12-07T08:14:13;3.60;;;2.10;;
10882;SDS011;5494;51.796;10.952;2022-12-07T08:16:41;3.43;;;1.97;;
10882;SDS011;5494;51.796;10.952;2022-12-07T08:19:10;5.10;;;2.00;;
10882;SDS011;5494;51.796;10.952;2022-12-07T08:21:38;5.23;;;2.47;;
10882;SDS011;5494;51.796;10.952;2022-12-07T08:24:06;5.37;;;2.50;;
10882;SDS011;5494;51.796;10.952;2022-12-07T08:26:34;11.60;;;7.57;;
10882;SDS011;5494;51.796;10.952;2022-12-07T08:29:02;5.40;;;2.83;;
10882;SDS011;5494;51.796;10.952;2022-12-07T08:31:31;5.53;;;4.50;;
10882;SDS011;5494;51.796;10.952;2022-12-07T08:33:59;4.33;;;2.37;;
10882;SDS011;5494;51.796;10.952;2022-12-07T08:36:28;4.43;;;3.03;;
10882;SDS011;5494;51.796;10.952;2022-12-07T08:38:59;6.00;;;4.00;;
10882;SDS011;5494;51.796;10.952;2022-12-07T08:41:47;7.27;;;4.90;;
10882;SDS011;5494;51.796;10.952;2022-12-07T08:44:15;4.83;;;3.67;;
10882;SDS011;5494;51.796;10.952;2022-12-07T08:46:44;5.63;;;3.60;;
10882;SDS011;5494;51.796;10.952;2022-12-07T08:49:19;5.17;;;3.37;;
10882;SDS011;5494;51.796;10.952;2022-12-07T08:51:55;4.17;;;3.73;;
10882;SDS011;5494;51.796;10.952;2022-12-07T08:54:23;4.33;;;3.03;;
10882;SDS011;5494;51.796;10.952;2022-12-07T08:56:55;3.03;;;2.33;;
10882;SDS011;5494;51.796;10.952;2022-12-07T08:59:25;3.83;;;2.40;;
10882;SDS011;5494;51.796;10.952;2022-12-07T09:01:55;5.57;;;2.40;;
10882;SDS011;5494;51.796;10.952;2022-12-07T09:04:27;4.20;;;2.43;;
10882;SDS011;5494;51.796;10.952;2022-12-07T09:06:57;3.90;;;2.00;;
10882;SDS011;5494;51.796;10.952;2022-12-07T09:09:26;6.43;;;2.70;;
10882;SDS011;5494;51.796;10.952;2022-12-07T09:11:54;6.40;;;2.50;;
10882;SDS011;5494;51.796;10.952;2022-12-07T09:14:22;5.90;;;2.37;;
10882;SDS011;5494;51.796;10.952;2022-12-07T09:16:51;4.30;;;2.20;;
10882;SDS011;5494;51.796;10.952;2022-12-07T09:19:19;2.93;;;2.20;;
10882;SDS011;5494;51.796;10.952;2022-12-07T09:21:47;3.93;;;2.17;;
10882;SDS011;5494;51.796;10.952;2022-12-07T09:24:16;2.60;;;1.33;;
10882;SDS011;5494;51.796;10.952;2022-12-07T09:26:45;2.00;;;1.80;;
10882;SDS011;5494;51.796;10.952;2022-12-07T09:29:13;2.23;;;1.30;;
10882;SDS011;5494;51.796;10.952;2022-12-07T09:31:41;1.83;;;1.00;;
10882;SDS011;5494;51.796;10.952;2022-12-07T09:34:09;2.57;;;1.07;;
10882;SDS011;5494;51.796;10.952;2022-12-07T09:36:37;3.27;;;0.90;;
10882;SDS011;5494;51.796;10.952;2022-12-07T09:39:05;3.13;;;1.50;;
10882;SDS011;5494;51.796;10.952;2022-12-07T09:41:34;3.83;;;1.80;;
10882;SDS011;5494;51.796;10.952;2022-12-07T09:44:09;3.97;;;2.00;;
10882;SDS011;5494;51.796;10.952;2022-12-07T09:46:45;2.73;;;1.47;;
10882;SDS011;5494;51.796;10.952;2022-12-07T09:49:14;2.03;;;1.03;;
10882;SDS011;5494;51.796;10.952;2022-12-07T09:51:46;3.80;;;1.30;;
10882;SDS011;5494;51.796;10.952;2022-12-07T09:54:26;2.60;;;0.80;;
10882;SDS011;5494;51.796;10.952;2022-12-07T09:56:57;3.50;;;0.90;;
10882;SDS011;5494;51.796;10.952;2022-12-07T09:59:26;1.87;;;0.90;;
10882;SDS011;5494;51.796;10.952;2022-12-07T10:02:19;15.67;;;6.83;;
10882;SDS011;5494;51.796;10.952;2022-12-07T10:05:03;20.10;;;8.00;;
10882;SDS011;5494;51.796;10.952;2022-12-07T10:07:34;50.80;;;19.33;;
10882;SDS011;5494;51.796;10.952;2022-12-07T10:10:03;68.73;;;24.43;;
10882;SDS011;5494;51.796;10.952;2022-12-07T10:12:52;10.83;;;7.33;;
10882;SDS011;5494;51.796;10.952;2022-12-07T10:15:46;2.93;;;2.63;;
10882;SDS011;5494;51.796;10.952;2022-12-07T10:18:28;3.13;;;2.23;;
10882;SDS011;5494;51.796;10.952;2022-12-07T10:21:03;4.00;;;2.00;;
10882;SDS011;5494;51.796;10.952;2022-12-07T10:23:58;2.90;;;1.70;;
10882;SDS011;5494;51.796;10.952;2022-12-07T10:26:30;1.97;;;1.70;;
10882;SDS011;5494;51.796;10.952;2022-12-07T10:29:04;3.10;;;1.43;;
10882;SDS011;5494;51.796;10.952;2022-12-07T10:31:45;1.30;;;1.10;;
10882;SDS011;5494;51.796;10.952;2022-12-07T10:34:22;2.43;;;1.07;;
10882;SDS011;5494;51.796;10.952;2022-12-07T10:36:53;1.67;;;1.10;;
10882;SDS011;5494;51.796;10.952;2022-12-07T10:39:41;1.60;;;1.37;;
10882;SDS011;5494;51.796;10.952;2022-12-07T10:42:17;2.20;;;1.20;;
10882;SDS011;5494;51.796;10.952;2022-12-07T10:44:50;2.67;;;1.20;;
10882;SDS011;5494;51.796;10.952;2022-12-07T10:47:37;2.77;;;1.10;;
10882;SDS011;5494;51.796;10.952;2022-12-07T10:53:20;1.43;;;1.30;;
10882;SDS011;5494;51.796;10.952;2022-12-07T10:56:08;1.43;;;0.93;;
10882;SDS011;5494;51.796;10.952;2022-12-07T10:58:59;1.10;;;0.83;;
10882;SDS011;5494;51.796;10.952;2022-12-07T11:01:57;1.60;;;1.10;;
10882;SDS011;5494;51.796;10.952;2022-12-07T11:04:51;3.10;;;0.90;;
10882;SDS011;5494;51.796;10.952;2022-12-07T11:07:38;1.80;;;0.97;;
10882;SDS011;5494;51.796;10.952;2022-12-07T11:10:22;2.13;;;0.77;;
10882;SDS011;5494;51.796;10.952;2022-12-07T11:13:00;3.50;;;1.00;;
10882;SDS011;5494;51.796;10.952;2022-12-07T11:15:55;2.07;;;1.40;;
10882;SDS011;5494;51.796;10.952;2022-12-07T11:18:47;2.30;;;1.03;;
10882;SDS011;5494;51.796;10.952;2022-12-07T11:21:35;3.17;;;1.50;;
10882;SDS011;5494;51.796;10.952;2022-12-07T11:24:16;3.43;;;1.30;;
10882;SDS011;5494;51.796;10.952;2022-12-07T11:26:56;3.67;;;1.47;;
10882;SDS011;5494;51.796;10.952;2022-12-07T11:32:45;0.93;;;0.80;;
10882;SDS011;5494;51.796;10.952;2022-12-07T11:35:37;1.57;;;0.60;;
10882;SDS011;5494;51.796;10.952;2022-12-07T11:38:20;2.23;;;1.07;;
10882;SDS011;5494;51.796;10.952;2022-12-07T11:40:56;1.83;;;1.00;;
10882;SDS011;5494;51.796;10.952;2022-12-07T11:43:50;3.10;;;0.90;;
10882;SDS011;5494;51.796;10.952;2022-12-07T11:46:24;1.53;;;1.17;;
10882;SDS011;5494;51.796;10.952;2022-12-07T11:49:02;3.57;;;1.10;;
10882;SDS011;5494;51.796;10.952;2022-12-07T11:51:43;2.33;;;0.70;;
10882;SDS011;5494;51.796;10.952;2022-12-07T11:54:19;1.40;;;0.63;;
10882;SDS011;5494;51.796;10.952;2022-12-07T11:56:54;0.80;;;0.70;;
10882;SDS011;5494;51.796;10.952;2022-12-07T11:59:31;1.73;;;0.90;;
10882;SDS011;5494;51.796;10.952;2022-12-07T12:02:12;2.23;;;0.70;;
10882;SDS011;5494;51.796;10.952;2022-12-07T12:04:47;1.67;;;0.47;;
10882;SDS011;5494;51.796;10.952;2022-12-07T12:07:25;0.40;;;0.40;;
10882;SDS011;5494;51.796;10.952;2022-12-07T12:10:16;0.83;;;0.50;;
10882;SDS011;5494;51.796;10.952;2022-12-07T12:12:58;3.00;;;0.77;;
10882;SDS011;5494;51.796;10.952;2022-12-07T12:16:23;1.67;;;0.60;;
10882;SDS011;5494;51.796;10.952;2022-12-07T12:19:22;1.93;;;0.70;;
10882;SDS011;5494;51.796;10.952;2022-12-07T12:22:02;1.30;;;0.50;;
10882;SDS011;5494;51.796;10.952;2022-12-07T12:24:41;1.87;;;0.60;;
10882;SDS011;5494;51.796;10.952;2022-12-07T12:27:18;0.57;;;0.57;;
10882;SDS011;5494;51.796;10.952;2022-12-07T12:29:52;3.43;;;0.70;;
10882;SDS011;5494;51.796;10.952;2022-12-07T12:32:29;1.50;;;0.70;;
10882;SDS011;5494;51.796;10.952;2022-12-07T12:35:26;1.57;;;0.47;;
10882;SDS011;5494;51.796;10.952;2022-12-07T12:44:40;3.60;;;0.70;;
10882;SDS011;5494;51.796;10.952;2022-12-07T12:47:38;2.03;;;0.67;;
10882;SDS011;5494;51.796;10.952;2022-12-07T12:50:22;1.23;;;0.80;;
10882;SDS011;5494;51.796;10.952;2022-12-07T12:52:55;1.57;;;0.90;;
10882;SDS011;5494;51.796;10.952;2022-12-07T12:58:48;0.40;;;0.40;;
10882;SDS011;5494;51.796;10.952;2022-12-07T13:01:40;1.13;;;0.60;;
10882;SDS011;5494;51.796;10.952;2022-12-07T13:04:18;0.93;;;0.83;;
10882;SDS011;5494;51.796;10.952;2022-12-07T13:06:54;3.57;;;1.50;;
10882;SDS011;5494;51.796;10.952;2022-12-07T13:09:23;1.97;;;1.60;;
10882;SDS011;5494;51.796;10.952;2022-12-07T13:11:59;9.47;;;4.20;;
10882;SDS011;5494;51.796;10.952;2022-12-07T13:14:43;3.27;;;2.20;;
10882;SDS011;5494;51.796;10.952;2022-12-07T13:20:40;3.83;;;1.90;;
10882;SDS011;5494;51.796;10.952;2022-12-07T13:23:16;2.50;;;1.10;;
10882;SDS011;5494;51.796;10.952;2022-12-07T13:25:59;3.47;;;1.40;;
10882;SDS011;5494;51.796;10.952;2022-12-07T13:28:43;2.63;;;1.23;;
10882;SDS011;5494;51.796;10.952;2022-12-07T13:31:25;3.93;;;1.33;;
10882;SDS011;5494;51.796;10.952;2022-12-07T13:34:01;1.33;;;0.90;;
10882;SDS011;5494;51.796;10.952;2022-12-07T13:36:32;2.87;;;1.10;;
10882;SDS011;5494;51.796;10.952;2022-12-07T13:39:11;0.93;;;0.80;;
10882;SDS011;5494;51.796;10.952;2022-12-07T13:41:49;1.73;;;1.00;;
10882;SDS011;5494;51.796;10.952;2022-12-07T13:44:19;2.30;;;0.80;;
10882;SDS011;5494;51.796;10.952;2022-12-07T13:46:51;2.27;;;1.20;;
10882;SDS011;5494;51.796;10.952;2022-12-07T13:49:28;3.37;;;1.40;;
10882;SDS011;5494;51.796;10.952;2022-12-07T13:52:08;1.50;;;0.73;;
10882;SDS011;5494;51.796;10.952;2022-12-07T13:54:48;2.30;;;0.60;;
10882;SDS011;5494;51.796;10.952;2022-12-07T13:57:24;2.50;;;0.50;;
10882;SDS011;5494;51.796;10.952;2022-12-07T13:59:54;1.27;;;0.60;;
10882;SDS011;5494;51.796;10.952;2022-12-07T14:02:26;0.80;;;0.60;;
10882;SDS011;5494;51.796;10.952;2022-12-07T14:05:08;1.03;;;0.50;;
10882;SDS011;5494;51.796;10.952;2022-12-07T14:07:48;0.57;;;0.57;;
10882;SDS011;5494;51.796;10.952;2022-12-07T14:10:23;35.60;;;12.10;;
10882;SDS011;5494;51.796;10.952;2022-12-07T14:12:54;11.57;;;4.13;;
10882;SDS011;5494;51.796;10.952;2022-12-07T14:15:28;9.10;;;4.77;;
10882;SDS011;5494;51.796;10.952;2022-12-07T14:18:02;5.57;;;2.40;;
10882;SDS011;5494;51.796;10.952;2022-12-07T14:20:32;13.37;;;6.80;;
10882;SDS011;5494;51.796;10.952;2022-12-07T14:23:03;13.17;;;6.30;;
10882;SDS011;5494;51.796;10.952;2022-12-07T14:25:44;17.07;;;7.97;;
10882;SDS011;5494;51.796;10.952;2022-12-07T14:28:26;15.23;;;6.80;;
10882;SDS011;5494;51.796;10.952;2022-12-07T14:30:57;22.37;;;10.53;;
10882;SDS011;5494;51.796;10.952;2022-12-07T14:33:27;35.37;;;12.43;;
10882;SDS011;5494;51.796;10.952;2022-12-07T14:35:56;22.80;;;9.73;;
10882;SDS011;5494;51.796;10.952;2022-12-07T14:38:24;49.70;;;20.57;;
10882;SDS011;5494;51.796;10.952;2022-12-07T14:40:53;26.43;;;8.53;;
10882;SDS011;5494;51.796;10.952;2022-12-07T14:43:46;22.20;;;10.33;;
10882;SDS011;5494;51.796;10.952;2022-12-07T14:46:38;5.37;;;3.53;;
10882;SDS011;5494;51.796;10.952;2022-12-07T14:49:08;4.70;;;2.30;;
10882;SDS011;5494;51.796;10.952;2022-12-07T14:51:56;5.07;;;2.00;;
10882;SDS011;5494;51.796;10.952;2022-12-07T14:54:46;5.57;;;1.93;;
10882;SDS011;5494;51.796;10.952;2022-12-07T14:57:14;3.90;;;1.73;;
10882;SDS011;5494;51.796;10.952;2022-12-07T14:59:42;3.37;;;1.40;;
10882;SDS011;5494;51.796;10.952;2022-12-07T15:02:11;3.90;;;1.57;;
10882;SDS011;5494;51.796;10.952;2022-12-07T15:04:43;1.97;;;1.40;;
10882;SDS011;5494;51.796;10.952;2022-12-07T15:07:13;2.57;;;1.30;;
10882;SDS011;5494;51.796;10.952;2022-12-07T15:09:47;5.63;;;1.70;;
10882;SDS011;5494;51.796;10.952;2022-12-07T15:12:15;2.43;;;1.43;;
10882;SDS011;5494;51.796;10.952;2022-12-07T15:14:44;2.63;;;1.60;;
10882;SDS011;5494;51.796;10.952;2022-12-07T15:17:12;5.23;;;1.67;;
10882;SDS011;5494;51.796;10.952;2022-12-07T15:19:56;4.90;;;1.53;;
10882;SDS011;5494;51.796;10.952;2022-12-07T15:22:24;4.33;;;1.30;;
10882;SDS011;5494;51.796;10.952;2022-12-07T15:24:52;5.97;;;2.23;;
10882;SDS011;5494;51.796;10.952;2022-12-07T15:27:20;3.67;;;1.50;;
10882;SDS011;5494;51.796;10.952;2022-12-07T15:29:51;2.70;;;1.63;;
10882;SDS011;5494;51.796;10.952;2022-12-07T15:32:19;4.23;;;1.80;;
10882;SDS011;5494;51.796;10.952;2022-12-07T15:34:49;4.60;;;1.87;;
10882;SDS011;5494;51.796;10.952;2022-12-07T15:37:18;4.10;;;1.97;;
10882;SDS011;5494;51.796;10.952;2022-12-07T15:39:46;4.57;;;2.40;;
10882;SDS011;5494;51.796;10.952;2022-12-07T15:42:15;6.33;;;3.23;;
10882;SDS011;5494;51.796;10.952;2022-12-07T15:44:44;5.30;;;1.93;;
10882;SDS011;5494;51.796;10.952;2022-12-07T15:47:33;3.93;;;2.27;;
10882;SDS011;5494;51.796;10.952;2022-12-07T15:50:24;3.67;;;2.13;;
10882;SDS011;5494;51.796;10.952;2022-12-07T15:52:53;3.70;;;1.87;;